createdAt,value
2023-01-09T00:02:12.537Z,93009.47
2023-01-09T00:04:39.643Z,93004.88
2023-01-09T00:07:09.442Z,93006.97
2023-01-09T00:09:36.489Z,93006.22
2023-01-09T00:12:03.702Z,93008.25
2023-01-09T00:14:33.294Z,93016.41
2023-01-09T00:17:00.433Z,93019.50
2023-01-09T00:19:29.905Z,93003.22
2023-01-09T00:21:57.687Z,92994.50
2023-01-09T00:24:24.808Z,92989.81
2023-01-09T00:26:51.517Z,92991.59
2023-01-09T00:29:18.532Z,92981.22
2023-01-09T00:31:45.202Z,92988.66
2023-01-09T00:34:13.418Z,92975.44
2023-01-09T00:36:40.099Z,92981.31
2023-01-09T00:39:07.128Z,93002.31
2023-01-09T00:41:42.459Z,92995.50
2023-01-09T00:44:21.903Z,93011.06
2023-01-09T00:46:54.823Z,93007.41
2023-01-09T00:49:21.832Z,93005.66
2023-01-09T00:51:48.594Z,93029.22
2023-01-09T00:54:16.645Z,93057.25
2023-01-09T00:56:43.412Z,93047.13
2023-01-09T00:59:10.468Z,93050.50
2023-01-09T01:01:38.377Z,93043.81
2023-01-09T01:04:05.486Z,93073.00
2023-01-09T01:06:32.542Z,93091.38
2023-01-09T01:08:59.262Z,93096.22
2023-01-09T01:11:25.979Z,93098.16
2023-01-09T01:13:52.661Z,93115.41
2023-01-09T01:16:19.549Z,93103.59
2023-01-09T01:18:46.631Z,93096.31
2023-01-09T01:21:13.721Z,93106.03
2023-01-09T01:23:41.620Z,93111.56
2023-01-09T01:26:13.123Z,93137.34
2023-01-09T01:28:42.704Z,93148.97
2023-01-09T01:31:09.445Z,93167.97
2023-01-09T01:33:39.062Z,93179.06
2023-01-09T01:36:07.567Z,93169.00
2023-01-09T01:38:34.568Z,93181.78
2023-01-09T01:41:01.520Z,93176.88
2023-01-09T01:43:28.496Z,93191.66
2023-01-09T01:45:55.460Z,93206.94
2023-01-09T01:48:29.477Z,93226.66
2023-01-09T01:51:04.219Z,93225.47
2023-01-09T01:53:48.410Z,93257.09
2023-01-09T01:56:19.666Z,93254.44
2023-01-09T01:58:49.748Z,93263.09
2023-01-09T02:01:16.578Z,93271.50
2023-01-09T02:03:48.367Z,93287.88
2023-01-09T02:06:15.663Z,93280.63
2023-01-09T02:08:42.358Z,93285.44
2023-01-09T02:11:09.398Z,93298.47
2023-01-09T02:13:36.280Z,93289.09
2023-01-09T02:16:41.416Z,93295.84
2023-01-09T02:19:31.711Z,93308.16
2023-01-09T02:22:21.769Z,93320.81
2023-01-09T02:25:03.418Z,93320.22
2023-01-09T02:28:01.083Z,93329.63
2023-01-09T02:30:36.769Z,93331.94
2023-01-09T02:33:20.541Z,93336.53
2023-01-09T02:36:05.149Z,93365.84
2023-01-09T02:38:32.189Z,93371.41
2023-01-09T02:41:00.624Z,93366.81
2023-01-09T02:43:27.440Z,93379.19
2023-01-09T02:45:54.497Z,93394.44
2023-01-09T02:48:21.373Z,93400.78
2023-01-09T02:50:55.996Z,93399.88
2023-01-09T02:53:50.524Z,93408.03
2023-01-09T02:56:44.465Z,93405.09
2023-01-09T02:59:42.577Z,93401.00
2023-01-09T03:02:33.346Z,93410.16
2023-01-09T03:05:22.710Z,93407.63
2023-01-09T03:07:55.950Z,93417.19
2023-01-09T03:10:30.595Z,93416.69
2023-01-09T03:12:59.002Z,93424.91
2023-01-09T03:15:28.169Z,93437.09
2023-01-09T03:17:55.285Z,93437.09
2023-01-09T03:20:22.961Z,93428.63
2023-01-09T03:23:01.976Z,93425.44
2023-01-09T03:25:29.233Z,93435.38
2023-01-09T03:27:58.149Z,93440.34
2023-01-09T03:30:26.237Z,93448.69
2023-01-09T03:32:56.393Z,93460.03
2023-01-09T03:35:23.171Z,93456.97
2023-01-09T03:37:49.949Z,93467.44
2023-01-09T03:40:19.772Z,93476.94
2023-01-09T03:42:47.898Z,93481.69
2023-01-09T03:45:14.763Z,93481.19
2023-01-09T03:47:41.796Z,93491.47
2023-01-09T03:50:08.765Z,93490.22
2023-01-09T03:52:35.472Z,93512.69
2023-01-09T03:55:02.254Z,93518.72
2023-01-09T03:57:29.341Z,93523.22
2023-01-09T03:59:57.187Z,93522.91
2023-01-09T04:02:26.795Z,93524.28
2023-01-09T04:04:53.861Z,93537.13
2023-01-09T04:07:21.304Z,93535.06
2023-01-09T04:09:48.341Z,93547.81
2023-01-09T04:12:16.286Z,93551.53
2023-01-09T04:14:43.481Z,93550.16
2023-01-09T04:17:13.284Z,93553.09
2023-01-09T04:19:42.997Z,93542.91
2023-01-09T04:22:10.059Z,93556.75
2023-01-09T04:24:37.146Z,93563.34
2023-01-09T04:27:03.910Z,93575.50
2023-01-09T04:29:30.649Z,93578.94
2023-01-09T04:31:57.689Z,93587.03
2023-01-09T04:34:24.410Z,93583.34
2023-01-09T04:36:51.908Z,93590.44
2023-01-09T04:39:18.639Z,93591.66
2023-01-09T04:41:45.330Z,93592.91
2023-01-09T04:44:12.039Z,93599.19
2023-01-09T04:46:38.744Z,93598.97
2023-01-09T04:49:05.735Z,93607.09
2023-01-09T04:51:33.493Z,93612.03
2023-01-09T04:54:00.485Z,93620.66
2023-01-09T04:56:30.261Z,93628.41
2023-01-09T04:58:57.069Z,93622.84
2023-01-09T05:01:23.933Z,93621.84
2023-01-09T05:03:50.744Z,93617.00
2023-01-09T05:06:17.480Z,93621.31
2023-01-09T05:08:44.543Z,93621.56
2023-01-09T05:11:12.264Z,93631.84
2023-01-09T05:13:40.151Z,93624.69
2023-01-09T05:16:08.435Z,93636.88
2023-01-09T05:18:35.211Z,93632.91
2023-01-09T05:21:02.297Z,93637.16
2023-01-09T05:23:29.029Z,93633.75
2023-01-09T05:25:58.849Z,93618.91
2023-01-09T05:28:25.932Z,93615.63
2023-01-09T05:30:52.622Z,93618.13
2023-01-09T05:33:19.420Z,93611.56
2023-01-09T05:35:46.462Z,93606.13
2023-01-09T05:38:16.157Z,93600.97
2023-01-09T05:40:43.341Z,93598.16
2023-01-09T05:43:10.359Z,93598.97
2023-01-09T05:45:37.063Z,93593.56
2023-01-09T05:48:04.486Z,93590.94
2023-01-09T05:50:31.501Z,93582.94
2023-01-09T05:52:58.228Z,93593.25
2023-01-09T05:55:27.730Z,93590.47
2023-01-09T05:57:57.492Z,93588.59
2023-01-09T06:00:24.741Z,93586.56
2023-01-09T06:02:51.918Z,93599.66
2023-01-09T06:05:18.660Z,93603.28
2023-01-09T06:07:45.727Z,93604.22
2023-01-09T06:10:13.202Z,93611.47
2023-01-09T06:12:41.664Z,93616.53
2023-01-09T06:15:10.627Z,93615.13
2023-01-09T06:17:38.785Z,93629.94
2023-01-09T06:20:06.593Z,93624.06
2023-01-09T06:22:33.992Z,93631.59
2023-01-09T06:25:03.622Z,93630.97
2023-01-09T06:27:30.665Z,93637.97
2023-01-09T06:29:57.690Z,93643.69
2023-01-09T06:32:24.391Z,93639.19
2023-01-09T06:34:51.385Z,93633.34
2023-01-09T06:37:18.441Z,93642.00
2023-01-09T06:39:45.496Z,93643.97
2023-01-09T06:42:12.557Z,93647.53
2023-01-09T06:44:39.552Z,93645.03
2023-01-09T06:47:06.883Z,93631.13
2023-01-09T06:49:36.486Z,93633.03
2023-01-09T06:52:03.641Z,93630.88
2023-01-09T06:54:30.766Z,93624.59
2023-01-09T06:56:57.853Z,93622.47
2023-01-09T06:59:27.616Z,93624.22
2023-01-09T07:01:54.489Z,93616.59
2023-01-09T07:04:21.633Z,93623.31
2023-01-09T07:06:50.203Z,93615.22
2023-01-09T07:09:17.333Z,93622.16
2023-01-09T07:11:44.064Z,93619.44
2023-01-09T07:14:12.264Z,93613.41
2023-01-09T07:16:39.791Z,93623.72
2023-01-09T07:19:06.822Z,93620.97
2023-01-09T07:21:33.589Z,93620.50
2023-01-09T07:24:00.685Z,93621.09
2023-01-09T07:26:30.240Z,93622.38
2023-01-09T07:28:58.017Z,93620.69
2023-01-09T07:31:25.121Z,93614.13
2023-01-09T07:33:51.920Z,93611.09
2023-01-09T07:36:18.980Z,93616.97
2023-01-09T07:38:46.038Z,93609.44
2023-01-09T07:41:15.870Z,93602.19
2023-01-09T07:43:42.950Z,93604.66
2023-01-09T07:46:10.088Z,93606.06
2023-01-09T07:48:37.567Z,93603.41
2023-01-09T07:51:05.252Z,93612.50
2023-01-09T07:53:33.383Z,93615.13
2023-01-09T07:56:01.380Z,93613.72
2023-01-09T07:58:28.663Z,93608.22
2023-01-09T08:00:55.787Z,93612.31
2023-01-09T08:03:24.062Z,93619.91
2023-01-09T08:05:51.700Z,93616.75
2023-01-09T08:08:18.993Z,93621.03
2023-01-09T08:10:46.173Z,93617.44
2023-01-09T08:13:13.335Z,93612.19
2023-01-09T08:15:41.317Z,93619.03
2023-01-09T08:18:08.318Z,93606.88
2023-01-09T08:20:35.240Z,93602.69
2023-01-09T08:23:02.780Z,93608.38
2023-01-09T08:25:31.173Z,93608.22
2023-01-09T08:27:59.205Z,93613.81
2023-01-09T08:30:26.128Z,93617.84
2023-01-09T08:32:56.070Z,93619.34
2023-01-09T08:35:25.836Z,93616.91
2023-01-09T08:37:52.700Z,93600.13
2023-01-09T08:40:19.912Z,93599.91
2023-01-09T08:42:47.039Z,93601.22
2023-01-09T08:45:13.833Z,93598.22
2023-01-09T08:47:42.022Z,93611.88
2023-01-09T08:50:10.356Z,93604.44
2023-01-09T08:52:37.397Z,93606.31
2023-01-09T08:55:04.677Z,93582.97
2023-01-09T08:57:32.785Z,93576.88
2023-01-09T09:00:00.569Z,93572.88
2023-01-09T09:02:27.758Z,93583.78
2023-01-09T09:04:54.863Z,93592.84
2023-01-09T09:07:24.750Z,93595.81
2023-01-09T09:09:51.949Z,93589.13
2023-01-09T09:12:24.624Z,93583.50
2023-01-09T09:14:52.716Z,93591.91
2023-01-09T09:17:20.215Z,93595.75
2023-01-09T09:19:47.427Z,93595.69
2023-01-09T09:22:15.604Z,93600.38
2023-01-09T09:24:42.284Z,93602.66
2023-01-09T09:27:09.724Z,93600.06
2023-01-09T09:29:36.795Z,93609.13
2023-01-09T09:32:03.559Z,93608.91
2023-01-09T09:34:30.659Z,93608.41
2023-01-09T09:36:57.642Z,93627.00
2023-01-09T09:39:24.813Z,93633.66
2023-01-09T09:42:23.910Z,93644.75
2023-01-09T09:45:10.044Z,93648.66
2023-01-09T09:47:50.920Z,93643.84
2023-01-09T09:50:49.694Z,93650.06
2023-01-09T09:53:24.694Z,93664.53
2023-01-09T09:55:51.433Z,93671.03
2023-01-09T09:58:34.562Z,93684.59
2023-01-09T10:01:01.349Z,93692.47
2023-01-09T10:03:40.227Z,93695.31
2023-01-09T10:06:21.312Z,93700.50
2023-01-09T10:09:28.533Z,93701.09
2023-01-09T10:12:26.660Z,93702.94
2023-01-09T10:14:55.994Z,93712.41
2023-01-09T10:17:33.055Z,93701.97
2023-01-09T10:20:27.489Z,93703.81
2023-01-09T10:23:14.526Z,93726.53
2023-01-09T10:26:27.614Z,93716.03
2023-01-09T10:29:06.464Z,93715.13
2023-01-09T10:31:51.130Z,93718.28
2023-01-09T10:34:51.775Z,93708.97
2023-01-09T10:37:37.044Z,93706.06
2023-01-09T10:40:30.301Z,93690.97
2023-01-09T10:43:06.018Z,93695.00
2023-01-09T10:45:41.897Z,93692.31
2023-01-09T10:48:25.693Z,93705.94
2023-01-09T10:50:52.848Z,93721.53
2023-01-09T10:53:27.127Z,93711.28
2023-01-09T10:55:55.949Z,93712.78
2023-01-09T10:58:22.791Z,93707.19
2023-01-09T11:00:51.060Z,93704.16
2023-01-09T11:03:21.570Z,93709.03
2023-01-09T11:05:54.258Z,93711.81
2023-01-09T11:08:37.148Z,93708.50
2023-01-09T11:11:03.885Z,93711.03
2023-01-09T11:13:31.981Z,93708.28
2023-01-09T11:15:59.493Z,93707.25
2023-01-09T11:18:26.355Z,93708.66
2023-01-09T11:20:53.034Z,93712.06
2023-01-09T11:23:35.234Z,93714.63
2023-01-09T11:26:02.248Z,93706.22
2023-01-09T11:28:31.975Z,93711.81
2023-01-09T11:31:00.198Z,93695.81
2023-01-09T11:33:31.829Z,93692.41
2023-01-09T11:36:11.177Z,93695.19
2023-01-09T11:38:49.434Z,93687.63
2023-01-09T11:41:19.602Z,93683.94
2023-01-09T11:43:47.842Z,93676.88
2023-01-09T11:46:36.870Z,93680.28
2023-01-09T11:49:24.146Z,93668.09
2023-01-09T11:52:26.551Z,93666.88
2023-01-09T11:54:59.242Z,93659.44
2023-01-09T11:57:26.060Z,93656.97
2023-01-09T11:59:52.763Z,93653.72
2023-01-09T12:02:53.864Z,93649.22
2023-01-09T12:05:28.307Z,93650.78
2023-01-09T12:08:10.556Z,93651.84
2023-01-09T12:10:43.036Z,93646.13
2023-01-09T12:13:45.026Z,93635.63
2023-01-09T12:16:30.586Z,93630.75
2023-01-09T12:19:18.605Z,93631.69
2023-01-09T12:22:19.601Z,93618.38
2023-01-09T12:24:46.120Z,93630.59
2023-01-09T12:27:34.175Z,93627.69
2023-01-09T12:30:26.345Z,93637.69
2023-01-09T12:33:17.934Z,93633.69
2023-01-09T12:35:47.501Z,93643.25
2023-01-09T12:38:28.268Z,93646.44
2023-01-09T12:41:14.121Z,93642.75
2023-01-09T12:43:46.836Z,93638.00
2023-01-09T12:46:24.443Z,93636.00
2023-01-09T12:48:54.107Z,93631.81
2023-01-09T12:51:43.579Z,93637.84
2023-01-09T12:54:29.537Z,93643.88
2023-01-09T12:57:00.351Z,93631.66
2023-01-09T12:59:35.345Z,93641.84
2023-01-09T13:03:00.603Z,93640.47
2023-01-09T13:05:41.684Z,93639.88
2023-01-09T13:08:12.730Z,93633.22
2023-01-09T13:10:40.750Z,93640.91
2023-01-09T13:13:47.220Z,93649.72
2023-01-09T13:16:17.984Z,93643.38
2023-01-09T13:19:15.355Z,93648.16
2023-01-09T13:21:43.561Z,93655.88
2023-01-09T13:24:31.555Z,93654.44
2023-01-09T13:27:12.491Z,93665.63
2023-01-09T13:29:41.653Z,93669.84
2023-01-09T13:32:51.402Z,93678.63
2023-01-09T13:35:24.615Z,93703.31
2023-01-09T13:37:54.706Z,93711.34
2023-01-09T13:40:22.168Z,93733.88
2023-01-09T13:43:08.826Z,93738.41
2023-01-09T13:45:37.210Z,93729.06
2023-01-09T13:48:17.068Z,93739.66
2023-01-09T13:50:45.074Z,93731.72
2023-01-09T13:53:18.106Z,93740.38
2023-01-09T13:56:07.515Z,93735.69
2023-01-09T13:58:37.221Z,93730.16
2023-01-09T14:01:05.588Z,93728.44
2023-01-09T14:03:39.307Z,93730.59
2023-01-09T14:06:11.442Z,93732.56
2023-01-09T14:08:40.900Z,93738.88
2023-01-09T14:11:20.918Z,93749.25
2023-01-09T14:13:51.882Z,93739.16
2023-01-09T14:16:21.462Z,93749.25
2023-01-09T14:19:00.687Z,93758.06
2023-01-09T14:21:27.518Z,93763.00
2023-01-09T14:24:05.235Z,93768.13
2023-01-09T14:26:45.986Z,93766.63
2023-01-09T14:29:41.128Z,93767.31
2023-01-09T14:32:35.311Z,93774.16
2023-01-09T14:35:13.683Z,93775.13
2023-01-09T14:37:41.081Z,93767.28
2023-01-09T14:40:20.028Z,93766.69
2023-01-09T14:42:46.938Z,93780.78
2023-01-09T14:45:22.343Z,93779.09
2023-01-09T14:47:58.521Z,93787.59
2023-01-09T14:50:53.031Z,93806.34
2023-01-09T14:53:27.864Z,93807.56
2023-01-09T14:56:02.536Z,93805.28
2023-01-09T14:58:32.793Z,93808.50
2023-01-09T15:01:03.097Z,93812.47
2023-01-09T15:03:42.910Z,93825.34
2023-01-09T15:06:13.398Z,93831.09
2023-01-09T15:08:44.250Z,93825.38
2023-01-09T15:11:12.509Z,93841.13
2023-01-09T15:13:44.250Z,93844.84
2023-01-09T15:16:22.015Z,93842.66
2023-01-09T15:18:51.075Z,93842.59
2023-01-09T15:21:19.947Z,93844.09
2023-01-09T15:23:46.793Z,93839.88
2023-01-09T15:26:27.336Z,93846.16
2023-01-09T15:29:00.099Z,93857.44
2023-01-09T15:31:26.838Z,93846.13
2023-01-09T15:33:56.577Z,93853.16
2023-01-09T15:36:24.978Z,93855.81
2023-01-09T15:38:51.824Z,93859.16
2023-01-09T15:41:23.459Z,93857.19
2023-01-09T15:43:50.264Z,93847.13
2023-01-09T15:46:17.012Z,93855.66
2023-01-09T15:48:44.787Z,93853.38
2023-01-09T15:51:14.440Z,93854.28
2023-01-09T15:53:41.483Z,93859.88
2023-01-09T15:56:26.841Z,93870.69
2023-01-09T15:58:57.766Z,93860.47
2023-01-09T16:01:34.529Z,93873.16
2023-01-09T16:04:30.242Z,93882.16
2023-01-09T16:06:58.363Z,93889.34
2023-01-09T16:09:28.968Z,93894.56
2023-01-09T16:11:59.954Z,93911.47
2023-01-09T16:14:37.370Z,93909.06
2023-01-09T16:17:07.306Z,93898.81
2023-01-09T16:19:50.030Z,93906.31
2023-01-09T16:22:29.866Z,93914.97
2023-01-09T16:25:01.561Z,93916.06
2023-01-09T16:27:32.190Z,93915.75
2023-01-09T16:30:28.342Z,93922.00
2023-01-09T16:32:55.011Z,93918.06
2023-01-09T16:35:22.347Z,93925.38
2023-01-09T16:37:51.892Z,93926.19
2023-01-09T16:40:18.519Z,93939.09
2023-01-09T16:42:45.289Z,93949.19
2023-01-09T16:45:13.524Z,93956.72
2023-01-09T16:47:41.365Z,93951.56
2023-01-09T16:50:12.128Z,93970.31
2023-01-09T16:52:39.032Z,93967.69
2023-01-09T16:55:09.101Z,93965.16
2023-01-09T16:57:35.828Z,93967.69
2023-01-09T17:00:05.616Z,93972.66
2023-01-09T17:02:38.145Z,93966.19
2023-01-09T17:05:06.286Z,93968.97
2023-01-09T17:07:33.001Z,93977.50
2023-01-09T17:10:00.702Z,93972.28
2023-01-09T17:12:28.149Z,93977.84
2023-01-09T17:14:57.898Z,93991.34
2023-01-09T17:17:24.627Z,93980.59
2023-01-09T17:19:51.293Z,93985.56
2023-01-09T17:22:18.045Z,93984.44
2023-01-09T17:24:44.864Z,93984.75
2023-01-09T17:27:20.913Z,93988.59
2023-01-09T17:29:48.302Z,93993.59
2023-01-09T17:32:16.157Z,94003.94
2023-01-09T17:34:43.154Z,94016.13
2023-01-09T17:37:19.204Z,94009.38
2023-01-09T17:39:48.992Z,94024.66
2023-01-09T17:42:27.049Z,94036.09
2023-01-09T17:44:53.908Z,94032.22
2023-01-09T17:47:21.192Z,94032.28
2023-01-09T17:49:50.358Z,94044.56
2023-01-09T17:52:17.556Z,94046.50
2023-01-09T17:54:45.530Z,94053.41
2023-01-09T17:57:15.987Z,94061.25
2023-01-09T17:59:43.569Z,94052.78
2023-01-09T18:02:22.745Z,94066.38
2023-01-09T18:04:52.401Z,94073.25
2023-01-09T18:07:19.137Z,94089.69
2023-01-09T18:09:56.773Z,94074.81
2023-01-09T18:12:23.885Z,94083.16
2023-01-09T18:14:52.322Z,94079.47
2023-01-09T18:17:22.121Z,94084.91
2023-01-09T18:19:48.846Z,94094.03
2023-01-09T18:22:17.914Z,94090.78
2023-01-09T18:24:46.298Z,94104.44
2023-01-09T18:27:14.705Z,94103.31
2023-01-09T18:29:41.380Z,94115.41
2023-01-09T18:32:08.577Z,94112.72
2023-01-09T18:34:37.411Z,94114.75
2023-01-09T18:37:05.285Z,94120.06
2023-01-09T18:39:33.061Z,94114.53
2023-01-09T18:41:59.795Z,94120.47
2023-01-09T18:44:26.529Z,94104.00
2023-01-09T18:46:54.296Z,94124.84
2023-01-09T18:49:21.376Z,94131.81
2023-01-09T18:51:49.433Z,94140.03
2023-01-09T18:54:16.635Z,94143.47
2023-01-09T18:56:43.876Z,94138.69
2023-01-09T18:59:13.401Z,94144.25
2023-01-09T19:01:41.442Z,94132.06
2023-01-09T19:04:08.867Z,94146.91
2023-01-09T19:06:36.928Z,94150.78
2023-01-09T19:09:04.270Z,94148.56
2023-01-09T19:11:31.091Z,94161.66
2023-01-09T19:13:57.828Z,94163.09
2023-01-09T19:16:26.034Z,94164.75
2023-01-09T19:18:56.477Z,94163.31
2023-01-09T19:21:23.641Z,94171.56
2023-01-09T19:23:50.408Z,94177.19
2023-01-09T19:26:24.421Z,94178.81
2023-01-09T19:28:52.769Z,94182.69
2023-01-09T19:31:20.844Z,94183.78
2023-01-09T19:33:48.149Z,94184.41
2023-01-09T19:36:17.650Z,94187.28
2023-01-09T19:38:44.418Z,94185.28
2023-01-09T19:41:20.174Z,94180.06
2023-01-09T19:43:49.951Z,94185.41
2023-01-09T19:46:18.698Z,94184.09
2023-01-09T19:48:48.565Z,94188.94
2023-01-09T19:51:16.634Z,94190.38
2023-01-09T19:53:51.041Z,94193.16
2023-01-09T19:56:22.999Z,94201.69
2023-01-09T19:58:55.443Z,94210.19
2023-01-09T20:01:25.526Z,94212.78
2023-01-09T20:03:52.491Z,94214.50
2023-01-09T20:06:21.241Z,94220.50
2023-01-09T20:08:48.297Z,94227.03
2023-01-09T20:11:16.426Z,94228.50
2023-01-09T20:13:44.546Z,94225.22
2023-01-09T20:16:15.919Z,94231.53
2023-01-09T20:18:45.588Z,94228.31
2023-01-09T20:21:18.387Z,94235.34
2023-01-09T20:23:45.181Z,94224.81
2023-01-09T20:26:12.088Z,94231.34
2023-01-09T20:28:39.778Z,94241.44
2023-01-09T20:31:14.503Z,94247.78
2023-01-09T20:33:45.588Z,94245.16
2023-01-09T20:36:13.455Z,94241.28
2023-01-09T20:38:46.686Z,94249.00
2023-01-09T20:41:17.519Z,94242.16
2023-01-09T20:43:45.903Z,94236.28
2023-01-09T20:46:12.693Z,94238.56
2023-01-09T20:48:40.098Z,94243.22
2023-01-09T20:51:07.938Z,94247.69
2023-01-09T20:53:35.675Z,94255.94
2023-01-09T20:56:04.612Z,94251.38
2023-01-09T20:58:33.784Z,94249.97
2023-01-09T21:01:10.934Z,94260.53
2023-01-09T21:03:41.154Z,94258.06
2023-01-09T21:06:27.583Z,94269.31
2023-01-09T21:08:54.421Z,94272.84
2023-01-09T21:11:25.292Z,94279.59
2023-01-09T21:13:52.220Z,94275.88
2023-01-09T21:16:21.657Z,94289.34
2023-01-09T21:18:48.775Z,94301.84
2023-01-09T21:21:17.521Z,94290.78
2023-01-09T21:24:23.483Z,94298.53
2023-01-09T21:26:51.214Z,94285.59
2023-01-09T21:29:18.292Z,94295.59
2023-01-09T21:31:46.196Z,94297.94
2023-01-09T21:34:13.659Z,94301.47
2023-01-09T21:36:41.039Z,94293.84
2023-01-09T21:39:10.591Z,94301.88
2023-01-09T21:41:45.265Z,94300.06
2023-01-09T21:44:13.442Z,94299.13
2023-01-09T21:46:40.182Z,94290.50
2023-01-09T21:49:08.240Z,94295.16
2023-01-09T21:51:37.054Z,94294.59
2023-01-09T21:54:11.069Z,94287.63
2023-01-09T21:56:42.209Z,94284.84
2023-01-09T21:59:09.165Z,94286.41
2023-01-09T22:01:44.780Z,94290.63
2023-01-09T22:04:16.951Z,94286.59
2023-01-09T22:06:44.456Z,94300.91
2023-01-09T22:09:11.597Z,94307.75
2023-01-09T22:11:45.951Z,94307.38
2023-01-09T22:14:17.515Z,94312.38
2023-01-09T22:16:48.241Z,94308.13
2023-01-09T22:19:15.316Z,94313.59
2023-01-09T22:21:42.424Z,94315.50
2023-01-09T22:24:12.049Z,94318.88
2023-01-09T22:26:38.744Z,94329.03
2023-01-09T22:29:05.499Z,94332.16
2023-01-09T22:31:35.937Z,94337.72
2023-01-09T22:34:10.183Z,94344.75
2023-01-09T22:36:39.629Z,94359.50
2023-01-09T22:39:06.535Z,94351.03
2023-01-09T22:41:36.707Z,94355.31
2023-01-09T22:44:04.490Z,94346.09
2023-01-09T22:46:33.470Z,94361.28
2023-01-09T22:49:01.506Z,94370.78
2023-01-09T22:51:35.265Z,94370.78
2023-01-09T22:54:05.723Z,94379.47
2023-01-09T22:56:33.239Z,94392.63
2023-01-09T22:59:02.760Z,94406.00
2023-01-09T23:01:29.484Z,94400.31
2023-01-09T23:03:56.153Z,94411.22
2023-01-09T23:06:24.602Z,94417.34
2023-01-09T23:08:54.486Z,94431.06
2023-01-09T23:11:27.174Z,94435.06
2023-01-09T23:13:53.954Z,94444.31
2023-01-09T23:16:23.956Z,94442.38
2023-01-09T23:18:51.701Z,94441.34
2023-01-09T23:21:21.267Z,94454.31
2023-01-09T23:23:48.091Z,94471.22
2023-01-09T23:26:14.812Z,94469.47
2023-01-09T23:28:55.575Z,94468.59
2023-01-09T23:31:23.706Z,94467.16
2023-01-09T23:33:50.369Z,94466.72
2023-01-09T23:36:17.344Z,94471.50
2023-01-09T23:38:45.943Z,94470.44
2023-01-09T23:41:13.904Z,94473.38
2023-01-09T23:43:43.936Z,94478.16
2023-01-09T23:46:11.159Z,94487.97
2023-01-09T23:48:38.090Z,94485.47
2023-01-09T23:51:05.421Z,94487.84
2023-01-09T23:53:34.810Z,94494.47
2023-01-09T23:56:04.429Z,94487.59
2023-01-09T23:58:31.755Z,94489.22
